KATW

Appleton International Airport

Appleton, Wisconsin, USA
METAR KATW 241145Z 13010KT 10SM SCT120 14/14 A3011
Observed Flight Rules
Sep-24 @ 11:45 UTC (28 minutes ago) Visual Flight Rules
Wind Visibility Clouds
130° at 10 knots 10 miles
  • Scattered at 12,000' AGL
Temperatures Readings
Current 14°C / 57°F
Dewpoint 14°C / 57°F
Humidity 100%
Altimeter 30.11" Hg
Pressure 1020 hPa
Elevation 280
METAR KATW 241145Z 13010KT 10SM SCT120 14/14 A3011
Observed Flight Rules
Sep-24 @ 11:45 UTC
(28 minutes ago)
VFR
Wind Visibility
130° at 10 knots 10 miles
Clouds
  • Scattered at 12,000' AGL
Temperature Dewpoint
14°C / 57°F 14°C / 57°F
Humidity Altimeter Pressure
100% 30.11" Hg 1020 hPa